createdAt,value
2023-05-19T00:00:31.967Z,61.0539
2023-05-19T00:01:32.869Z,61.4162
2023-05-19T00:02:33.940Z,61.5372
2023-05-19T00:03:34.838Z,61.9648
2023-05-19T00:04:35.907Z,62.1374
2023-05-19T00:05:37.066Z,62.2713
2023-05-19T00:06:38.016Z,62.1287
2023-05-19T00:07:39.014Z,61.5855
2023-05-19T00:08:40.054Z,61.5418
2023-05-19T00:09:41.121Z,61.6593
2023-05-19T00:10:42.186Z,62.2193
2023-05-19T00:11:43.225Z,62.1437
2023-05-19T00:12:44.297Z,62.1102
2023-05-19T00:13:45.287Z,62.1612
2023-05-19T00:14:46.349Z,61.6272
2023-05-19T00:15:47.423Z,61.5883
2023-05-19T00:16:48.409Z,61.6098
2023-05-19T00:17:49.413Z,61.6790
2023-05-19T00:18:50.566Z,61.8220
2023-05-19T00:19:51.490Z,61.9777
2023-05-19T00:20:52.583Z,62.4817
2023-05-19T00:21:53.667Z,62.9611
2023-05-19T00:22:54.631Z,63.0901
2023-05-19T00:23:55.668Z,62.8559
2023-05-19T00:24:56.796Z,63.1325
2023-05-19T00:25:57.812Z,62.9393
2023-05-19T00:26:58.833Z,62.5573
2023-05-19T00:27:59.809Z,62.3533
2023-05-19T00:29:00.863Z,62.3096
2023-05-19T00:30:01.892Z,62.0518
2023-05-19T00:31:03.010Z,61.7740
2023-05-19T00:32:04.026Z,61.9645
2023-05-19T00:33:05.137Z,62.0487
2023-05-19T00:34:06.074Z,62.2510
2023-05-19T00:35:07.097Z,62.9199
2023-05-19T00:36:08.210Z,63.0480
2023-05-19T00:37:09.252Z,62.5642
2023-05-19T00:38:10.233Z,62.3218
2023-05-19T00:39:11.329Z,62.4234
2023-05-19T00:40:12.315Z,62.5208
2023-05-19T00:41:13.429Z,62.3753
2023-05-19T00:42:14.507Z,62.5170
2023-05-19T00:43:15.429Z,62.5224
2023-05-19T00:44:16.490Z,62.8843
2023-05-19T00:45:17.568Z,63.4107
2023-05-19T00:46:18.649Z,63.6553
2023-05-19T00:47:19.679Z,63.3813
2023-05-19T00:48:20.650Z,62.9391
2023-05-19T00:49:21.710Z,62.5307
2023-05-19T00:50:22.746Z,62.0964
2023-05-19T00:51:23.890Z,62.3652
2023-05-19T00:52:24.906Z,62.9145
2023-05-19T00:53:25.852Z,63.1380
2023-05-19T00:54:26.912Z,62.8807
2023-05-19T00:55:27.999Z,62.3790
2023-05-19T00:56:29.099Z,62.5753
2023-05-19T00:57:30.106Z,62.8227
2023-05-19T00:58:31.219Z,63.0027
2023-05-19T00:59:32.153Z,62.8853
2023-05-19T01:00:33.421Z,62.9473
2023-05-19T01:01:34.385Z,63.3688
2023-05-19T01:02:35.392Z,63.2855
2023-05-19T01:03:36.473Z,63.3959
2023-05-19T01:04:37.308Z,62.9350
2023-05-19T01:05:38.412Z,62.8544
2023-05-19T01:06:39.452Z,62.9290
2023-05-19T01:07:40.509Z,62.8840
2023-05-19T01:08:41.522Z,63.2209
2023-05-19T01:09:42.552Z,63.9989
2023-05-19T01:10:43.579Z,63.9620
2023-05-19T01:11:44.687Z,64.4076
2023-05-19T01:12:45.697Z,64.0336
2023-05-19T01:13:46.725Z,63.7232
2023-05-19T01:14:47.757Z,63.6947
2023-05-19T01:15:48.838Z,63.7690
2023-05-19T01:16:49.938Z,64.3936
2023-05-19T01:17:50.935Z,64.4855
2023-05-19T01:18:51.937Z,64.1954
2023-05-19T01:19:53.011Z,64.5776
2023-05-19T01:20:54.027Z,64.4764
2023-05-19T01:21:55.106Z,64.1982
2023-05-19T01:22:56.113Z,64.4067
2023-05-19T01:23:57.200Z,64.6180
2023-05-19T01:24:58.150Z,64.7821
2023-05-19T01:25:59.185Z,64.6503
2023-05-19T01:27:00.331Z,64.4253
2023-05-19T01:28:01.370Z,63.9422
2023-05-19T01:29:02.379Z,63.9079
2023-05-19T01:30:03.407Z,63.7101
2023-05-19T01:31:04.446Z,63.7179
2023-05-19T01:32:05.599Z,63.4718
2023-05-19T01:33:06.610Z,63.1035
2023-05-19T01:34:07.663Z,62.9686
2023-05-19T01:35:08.594Z,62.7772
2023-05-19T01:36:09.741Z,63.1042
2023-05-19T01:37:10.786Z,63.2976
2023-05-19T01:38:11.791Z,63.1616
2023-05-19T01:39:12.792Z,63.6824
2023-05-19T01:40:13.813Z,64.0078
2023-05-19T01:41:14.948Z,64.0969
2023-05-19T01:42:15.935Z,64.3632
2023-05-19T01:43:16.985Z,64.7040
2023-05-19T01:44:18.082Z,64.5531
2023-05-19T01:45:19.100Z,64.0460
2023-05-19T01:46:20.098Z,63.9212
2023-05-19T01:47:21.239Z,63.9269
2023-05-19T01:48:22.200Z,64.4102
2023-05-19T01:49:23.219Z,64.4609
2023-05-19T01:50:24.264Z,64.0715
2023-05-19T01:51:25.296Z,63.9801
2023-05-19T01:52:26.377Z,63.9686
2023-05-19T01:53:27.416Z,64.1348
2023-05-19T01:54:28.416Z,64.2612
2023-05-19T01:55:29.473Z,63.8010
2023-05-19T01:56:30.494Z,63.3429
2023-05-19T01:57:31.593Z,63.7471
2023-05-19T01:58:32.694Z,63.9163
2023-05-19T01:59:33.638Z,63.1969
2023-05-19T02:00:34.815Z,62.9056
2023-05-19T02:01:35.753Z,63.1248
2023-05-19T02:02:36.839Z,63.3275
2023-05-19T02:03:37.857Z,63.2815
2023-05-19T02:04:38.877Z,63.1729
2023-05-19T02:05:39.940Z,63.2607
2023-05-19T02:06:40.960Z,63.7800
2023-05-19T02:07:42.017Z,63.4048
2023-05-19T02:08:43.126Z,63.2741
2023-05-19T02:09:44.037Z,63.4563
2023-05-19T02:10:45.137Z,63.5008
2023-05-19T02:11:46.113Z,63.8479
2023-05-19T02:12:47.191Z,63.6446
2023-05-19T02:13:48.268Z,63.4622
2023-05-19T02:14:49.270Z,64.1733
2023-05-19T02:15:50.374Z,64.5054
2023-05-19T02:16:51.350Z,64.5590
2023-05-19T02:17:52.461Z,64.7899
2023-05-19T02:18:53.541Z,64.6526
2023-05-19T02:19:54.469Z,64.6301
2023-05-19T02:20:55.494Z,64.6697
2023-05-19T02:21:56.550Z,64.3626
2023-05-19T02:22:57.656Z,64.3819
2023-05-19T02:23:58.723Z,64.3282
2023-05-19T02:24:59.673Z,64.4502
2023-05-19T02:26:00.717Z,64.3564
2023-05-19T02:27:01.736Z,64.3115
2023-05-19T02:28:02.838Z,64.3668
2023-05-19T02:29:03.858Z,64.4266
2023-05-19T02:30:04.845Z,64.4801
2023-05-19T02:31:05.945Z,64.5147
2023-05-19T02:32:07.027Z,64.2949
2023-05-19T02:33:08.082Z,63.8211
2023-05-19T02:34:09.053Z,64.0665
2023-05-19T02:35:10.025Z,64.4660
2023-05-19T02:36:11.085Z,64.8630
2023-05-19T02:37:12.118Z,64.8681
2023-05-19T02:38:13.225Z,65.0063
2023-05-19T02:39:14.296Z,65.3573
2023-05-19T02:40:15.338Z,65.2558
2023-05-19T02:41:16.311Z,65.6892
2023-05-19T02:42:17.334Z,65.7050
2023-05-19T02:43:18.426Z,65.4304
2023-05-19T02:44:19.446Z,65.5591
2023-05-19T02:45:20.470Z,65.4967
2023-05-19T02:46:21.559Z,65.8327
2023-05-19T02:47:22.605Z,65.5464
2023-05-19T02:48:23.605Z,65.3250
2023-05-19T02:49:24.656Z,65.1591
2023-05-19T02:50:25.652Z,65.1464
2023-05-19T02:51:26.709Z,65.5485
2023-05-19T02:52:27.727Z,65.6825
2023-05-19T02:53:28.806Z,65.5881
2023-05-19T02:54:29.855Z,65.7249
2023-05-19T02:55:30.865Z,65.3759
2023-05-19T02:56:31.907Z,65.9433
2023-05-19T02:57:32.964Z,66.0021
2023-05-19T02:58:34.040Z,65.8715
2023-05-19T02:59:35.115Z,65.7648
2023-05-19T03:00:36.060Z,65.5887
2023-05-19T03:01:37.185Z,65.8002
2023-05-19T03:02:38.313Z,66.1282
2023-05-19T03:03:39.329Z,66.0631
2023-05-19T03:04:40.253Z,66.1509
2023-05-19T03:05:41.327Z,66.4460
2023-05-19T03:06:42.307Z,66.4103
2023-05-19T03:07:43.425Z,66.4382
2023-05-19T03:08:44.429Z,66.6243
2023-05-19T03:09:45.522Z,66.3628
2023-05-19T03:10:46.465Z,66.6870
2023-05-19T03:11:47.489Z,67.1151
2023-05-19T03:12:48.610Z,66.6844
2023-05-19T03:13:49.617Z,67.2561
2023-05-19T03:14:50.665Z,67.1032
2023-05-19T03:15:51.698Z,66.6787
2023-05-19T03:16:52.918Z,66.5750
2023-05-19T03:17:53.784Z,66.4204
2023-05-19T03:18:54.903Z,66.6256
2023-05-19T03:19:55.899Z,66.4972
2023-05-19T03:20:56.922Z,66.8440
2023-05-19T03:21:57.893Z,67.1984
2023-05-19T03:22:59.018Z,66.9868
2023-05-19T03:24:00.100Z,66.7735
2023-05-19T03:25:01.087Z,66.6734
2023-05-19T03:26:02.054Z,66.6390
2023-05-19T03:27:03.194Z,66.3417
2023-05-19T03:28:04.152Z,66.1085
2023-05-19T03:29:05.240Z,66.0143
2023-05-19T03:30:06.726Z,66.2352
2023-05-19T03:31:07.337Z,66.3461
2023-05-19T03:32:08.296Z,66.4759
2023-05-19T03:33:09.522Z,66.9373
2023-05-19T03:34:10.395Z,66.8599
2023-05-19T03:35:11.512Z,66.3218
2023-05-19T03:36:12.496Z,66.2226
2023-05-19T03:37:13.519Z,66.1648
2023-05-19T03:38:14.536Z,66.1035
2023-05-19T03:39:15.692Z,66.0360
2023-05-19T03:40:16.691Z,65.9465
2023-05-19T03:41:17.733Z,66.2451
2023-05-19T03:42:18.697Z,66.3077
2023-05-19T03:43:19.755Z,65.9995
2023-05-19T03:44:20.869Z,66.2371
2023-05-19T03:45:21.923Z,66.6250
2023-05-19T03:46:22.983Z,66.9566
2023-05-19T03:47:23.959Z,67.4506
2023-05-19T03:48:24.959Z,67.3380
2023-05-19T03:49:26.026Z,67.1060
2023-05-19T03:50:27.157Z,66.9233
2023-05-19T03:51:28.069Z,67.0254
2023-05-19T03:52:29.137Z,66.7578
2023-05-19T03:53:30.148Z,66.5897
2023-05-19T03:54:31.274Z,66.7263
2023-05-19T03:55:32.257Z,66.7598
2023-05-19T03:56:33.311Z,66.7132
2023-05-19T03:57:34.309Z,66.8923
2023-05-19T03:58:35.392Z,66.8109
2023-05-19T03:59:36.421Z,66.9468
2023-05-19T04:00:37.558Z,67.0594
2023-05-19T04:01:38.500Z,66.9196
2023-05-19T04:02:39.654Z,66.6799
2023-05-19T04:03:40.618Z,66.1521
2023-05-19T04:04:41.682Z,66.1008
2023-05-19T04:05:42.709Z,66.1970
2023-05-19T04:06:43.695Z,66.2237
2023-05-19T04:07:44.715Z,66.8869
2023-05-19T04:08:45.800Z,67.3889
2023-05-19T04:09:46.860Z,67.9276
2023-05-19T04:10:47.907Z,67.5942
2023-05-19T04:11:48.931Z,67.2991
2023-05-19T04:12:49.954Z,66.8967
2023-05-19T04:13:51.030Z,67.0300
2023-05-19T04:14:52.095Z,67.3122
2023-05-19T04:15:53.230Z,67.4729
2023-05-19T04:16:54.151Z,67.9901
2023-05-19T04:17:55.225Z,68.0495
2023-05-19T04:18:56.304Z,67.9241
2023-05-19T04:19:57.324Z,68.3133
2023-05-19T04:20:58.334Z,68.3343
2023-05-19T04:21:59.349Z,68.2482
2023-05-19T04:23:00.403Z,67.8592
2023-05-19T04:24:01.455Z,68.0221
2023-05-19T04:25:02.569Z,68.2251
2023-05-19T04:26:03.596Z,67.9094
2023-05-19T04:27:04.657Z,67.9885
2023-05-19T04:28:05.618Z,68.0907
2023-05-19T04:29:06.735Z,68.0485
2023-05-19T04:30:07.818Z,68.3008
2023-05-19T04:31:08.860Z,68.5858
2023-05-19T04:32:09.871Z,68.6913
2023-05-19T04:33:10.870Z,68.5359
2023-05-19T04:34:11.928Z,68.7472
2023-05-19T04:35:13.086Z,69.5676
2023-05-19T04:36:14.058Z,69.3742
2023-05-19T04:37:15.076Z,69.0683
2023-05-19T04:38:16.054Z,68.9264
2023-05-19T04:39:17.126Z,69.6790
2023-05-19T04:40:18.233Z,69.8514
2023-05-19T04:41:19.283Z,69.4203
2023-05-19T04:42:20.295Z,69.0653
2023-05-19T04:43:21.297Z,68.5536
2023-05-19T04:44:22.336Z,68.8142
2023-05-19T04:45:23.421Z,69.1280
2023-05-19T04:46:24.585Z,68.7731
2023-05-19T04:47:25.516Z,68.7436
2023-05-19T04:48:26.591Z,68.7399
2023-05-19T04:49:27.594Z,68.7516
2023-05-19T04:50:28.700Z,69.2513
2023-05-19T04:51:30.665Z,68.7589
2023-05-19T04:52:30.676Z,68.4588
2023-05-19T04:53:31.737Z,68.7065
2023-05-19T04:54:32.871Z,69.0959
2023-05-19T04:55:33.879Z,69.2355
2023-05-19T04:56:34.984Z,69.1730
2023-05-19T04:57:35.913Z,68.5866
2023-05-19T04:58:36.954Z,68.8542
2023-05-19T04:59:37.985Z,69.1040
2023-05-19T05:00:39.090Z,68.8870
2023-05-19T05:01:40.207Z,69.0193
2023-05-19T05:02:41.186Z,69.0943
2023-05-19T05:03:42.245Z,68.9658
2023-05-19T05:04:43.230Z,68.3657
2023-05-19T05:05:44.323Z,67.5570
2023-05-19T05:06:45.352Z,67.5907
2023-05-19T05:07:46.327Z,68.6281
2023-05-19T05:08:47.403Z,69.3367
2023-05-19T05:09:48.476Z,69.4801
2023-05-19T05:10:49.547Z,69.3854
2023-05-19T05:11:50.572Z,68.7266
2023-05-19T05:12:51.676Z,68.5215
2023-05-19T05:13:52.632Z,68.6170
2023-05-19T05:14:53.728Z,68.4407
2023-05-19T05:15:54.783Z,68.2741
2023-05-19T05:16:55.811Z,68.1792
2023-05-19T05:17:56.939Z,68.5106
2023-05-19T05:18:57.904Z,68.3007
2023-05-19T05:19:58.906Z,67.7633
2023-05-19T05:20:59.947Z,67.3230
2023-05-19T05:22:01.052Z,67.2050
2023-05-19T05:23:01.990Z,67.1684
2023-05-19T05:24:03.006Z,66.8658
2023-05-19T05:25:04.109Z,66.8986
2023-05-19T05:26:05.157Z,66.9927
2023-05-19T05:27:06.270Z,67.3703
2023-05-19T05:28:07.330Z,67.6629
2023-05-19T05:29:08.333Z,68.0136
2023-05-19T05:30:09.329Z,67.3967
2023-05-19T05:31:10.461Z,66.8983
2023-05-19T05:32:11.493Z,66.8977
2023-05-19T05:33:12.748Z,66.7395
2023-05-19T05:34:13.530Z,67.2190
2023-05-19T05:35:14.563Z,68.0371
2023-05-19T05:36:15.665Z,67.9762
2023-05-19T05:37:16.697Z,68.2346
2023-05-19T05:38:17.736Z,68.3731
2023-05-19T05:39:18.750Z,67.8848
2023-05-19T05:40:19.774Z,67.6455
2023-05-19T05:41:20.823Z,67.7067
2023-05-19T05:42:21.950Z,67.6840
2023-05-19T05:43:22.910Z,67.7960
2023-05-19T05:44:23.939Z,67.9420
2023-05-19T05:45:24.997Z,67.7196
2023-05-19T05:46:26.195Z,67.6165
2023-05-19T05:47:27.153Z,67.8948
2023-05-19T05:48:28.108Z,67.7338
2023-05-19T05:49:29.145Z,67.3757
2023-05-19T05:50:30.187Z,67.4881
2023-05-19T05:51:31.249Z,67.3461
2023-05-19T05:52:32.294Z,67.1987
2023-05-19T05:53:33.295Z,67.5514
2023-05-19T05:54:34.337Z,67.3254
2023-05-19T05:55:35.546Z,67.6522
2023-05-19T05:56:36.513Z,67.7277
2023-05-19T05:57:37.565Z,68.0086
2023-05-19T05:58:38.517Z,67.9137
2023-05-19T05:59:39.554Z,67.7438
2023-05-19T06:00:40.593Z,67.3185
2023-05-19T06:01:41.721Z,67.0320
2023-05-19T06:02:42.820Z,66.9523
2023-05-19T06:03:43.835Z,67.2353
2023-05-19T06:04:44.751Z,66.9994
2023-05-19T06:05:45.829Z,66.7067
2023-05-19T06:06:46.862Z,66.6929
2023-05-19T06:07:47.940Z,66.5957
2023-05-19T06:08:48.906Z,66.3243
2023-05-19T06:09:49.953Z,66.3609
2023-05-19T06:10:51.018Z,66.4013
2023-05-19T06:11:52.075Z,66.2518
2023-05-19T06:12:53.130Z,66.7866
2023-05-19T06:13:54.113Z,66.9583
2023-05-19T06:14:55.138Z,67.2429
2023-05-19T06:15:56.208Z,67.2957
2023-05-19T06:16:57.389Z,67.5284
2023-05-19T06:17:58.367Z,67.3876
2023-05-19T06:18:59.452Z,67.1719
2023-05-19T06:20:00.340Z,67.2788
2023-05-19T06:21:01.503Z,67.5012
2023-05-19T06:22:02.524Z,67.4851
2023-05-19T06:23:03.544Z,67.2454
2023-05-19T06:24:04.538Z,67.4600
2023-05-19T06:25:05.632Z,67.5111
2023-05-19T06:26:06.611Z,67.2529
2023-05-19T06:27:07.825Z,67.3252
2023-05-19T06:28:08.796Z,67.0583
2023-05-19T06:29:09.730Z,66.9321
2023-05-19T06:30:10.788Z,67.1561
2023-05-19T06:31:11.841Z,67.2362
2023-05-19T06:32:12.880Z,67.2251
2023-05-19T06:33:14.002Z,67.7646
2023-05-19T06:34:14.943Z,67.7990
2023-05-19T06:35:16.065Z,68.1268
2023-05-19T06:36:17.119Z,68.1267
2023-05-19T06:37:18.216Z,67.4121
2023-05-19T06:38:19.162Z,67.2787
2023-05-19T06:39:20.192Z,67.0627
2023-05-19T06:40:21.200Z,66.9706
2023-05-19T06:41:22.391Z,67.4113
2023-05-19T06:42:23.327Z,67.3830
2023-05-19T06:43:24.396Z,67.5953
2023-05-19T06:44:25.356Z,67.7591
2023-05-19T06:45:26.439Z,67.7726
2023-05-19T06:46:27.460Z,67.6039
2023-05-19T06:47:28.566Z,67.2676
2023-05-19T06:48:29.631Z,67.0243
2023-05-19T06:49:30.612Z,67.0780
2023-05-19T06:50:31.843Z,67.0791
2023-05-19T06:51:32.670Z,67.1923
2023-05-19T06:52:33.860Z,67.2475
2023-05-19T06:53:34.816Z,67.2702
2023-05-19T06:54:35.775Z,67.4617
2023-05-19T06:55:41.400Z,67.8485
2023-05-19T06:56:37.908Z,67.8806
2023-05-19T06:57:38.946Z,67.8420
2023-05-19T06:58:39.921Z,67.6713
2023-05-19T06:59:40.901Z,67.2372
2023-05-19T07:00:41.965Z,66.9057
2023-05-19T07:01:43.077Z,67.0193
2023-05-19T07:02:44.152Z,67.5715
2023-05-19T07:03:45.156Z,67.7223
2023-05-19T07:04:46.105Z,67.4109
2023-05-19T07:05:47.133Z,67.1278
2023-05-19T07:06:48.185Z,67.0010
2023-05-19T07:07:49.253Z,67.1281
2023-05-19T07:08:51.816Z,66.9113
2023-05-19T07:09:51.312Z,67.3555
2023-05-19T07:10:52.380Z,68.0163
2023-05-19T07:11:53.373Z,68.3493
2023-05-19T07:12:54.492Z,67.9341
2023-05-19T07:13:55.616Z,67.3392
2023-05-19T07:14:56.590Z,67.7959
2023-05-19T07:15:57.601Z,68.5561
2023-05-19T07:16:58.607Z,68.4159
2023-05-19T07:17:59.724Z,68.0712
2023-05-19T07:19:00.800Z,67.7451
2023-05-19T07:20:01.731Z,67.8160
2023-05-19T07:21:02.788Z,67.3952
2023-05-19T07:22:03.822Z,67.4193
2023-05-19T07:23:04.901Z,67.4484
2023-05-19T07:24:05.932Z,67.3755
2023-05-19T07:25:06.993Z,67.6971
2023-05-19T07:26:07.965Z,68.2359
2023-05-19T07:27:09.071Z,68.3554
2023-05-19T07:28:10.135Z,67.9385
2023-05-19T07:29:11.204Z,68.1924
2023-05-19T07:30:12.223Z,68.6804
2023-05-19T07:31:13.208Z,68.5215
2023-05-19T07:32:14.344Z,68.0592
2023-05-19T07:33:15.395Z,67.9746
2023-05-19T07:34:16.349Z,67.8632
2023-05-19T07:35:17.415Z,67.8219
2023-05-19T07:36:18.405Z,67.8067
2023-05-19T07:37:19.499Z,67.5970
2023-05-19T07:38:20.505Z,67.3322
2023-05-19T07:39:21.609Z,67.0682
2023-05-19T07:40:22.594Z,66.7537
2023-05-19T07:41:23.640Z,66.9337
2023-05-19T07:42:24.699Z,66.8470
2023-05-19T07:43:25.696Z,67.2484
2023-05-19T07:44:26.750Z,67.4486
2023-05-19T07:45:27.848Z,67.3005
2023-05-19T07:46:28.993Z,67.0918
2023-05-19T07:47:30.023Z,67.2816
2023-05-19T07:48:30.890Z,67.2526
2023-05-19T07:49:32.011Z,67.2999
2023-05-19T07:50:33.140Z,67.0782
2023-05-19T07:51:34.019Z,67.2679
2023-05-19T07:52:35.083Z,67.3219
2023-05-19T07:53:36.135Z,67.4235
2023-05-19T07:54:37.164Z,67.2503
2023-05-19T07:55:38.208Z,66.9280
2023-05-19T07:56:39.214Z,66.3186
2023-05-19T07:57:40.540Z,66.0604
2023-05-19T07:58:41.332Z,66.0719
2023-05-19T07:59:42.386Z,66.0991
2023-05-19T08:00:43.435Z,66.1941
2023-05-19T08:01:44.418Z,66.1346
2023-05-19T08:02:45.493Z,65.6107
2023-05-19T08:03:46.545Z,65.4532
2023-05-19T08:04:47.680Z,65.9866
2023-05-19T08:05:48.657Z,65.8740
2023-05-19T08:06:49.591Z,66.0422
2023-05-19T08:07:50.691Z,66.2921
2023-05-19T08:08:51.747Z,66.7146
2023-05-19T08:09:52.817Z,67.1493
2023-05-19T08:10:53.847Z,67.2059
2023-05-19T08:11:54.873Z,67.2546
2023-05-19T08:12:56.138Z,66.6894
2023-05-19T08:13:56.926Z,66.4609
2023-05-19T08:14:59.734Z,66.6375
2023-05-19T08:15:59.090Z,66.7927
2023-05-19T08:17:00.039Z,67.2630
2023-05-19T08:18:01.151Z,67.3176
2023-05-19T08:19:02.173Z,67.2221
2023-05-19T08:20:03.219Z,67.2392
2023-05-19T08:21:04.247Z,67.0277
2023-05-19T08:22:05.253Z,66.9151
2023-05-19T08:23:06.271Z,67.1944
2023-05-19T08:24:07.352Z,67.3078
2023-05-19T08:25:08.438Z,67.7321
2023-05-19T08:26:09.505Z,68.2541
2023-05-19T08:27:10.482Z,68.2994
2023-05-19T08:28:11.620Z,68.1066
2023-05-19T08:29:12.522Z,67.8867
2023-05-19T08:30:13.645Z,67.7381
2023-05-19T08:31:14.704Z,67.7179
2023-05-19T08:32:15.698Z,67.3747
2023-05-19T08:33:16.701Z,67.2199
2023-05-19T08:34:17.746Z,67.3326
2023-05-19T08:35:18.865Z,67.4403
2023-05-19T08:36:20.055Z,67.2840
2023-05-19T08:37:20.907Z,67.0647
2023-05-19T08:38:21.954Z,67.3310
2023-05-19T08:39:22.945Z,67.1086
2023-05-19T08:40:24.067Z,67.1922
2023-05-19T08:41:25.128Z,67.0491
2023-05-19T08:42:26.152Z,66.9506
2023-05-19T08:43:27.148Z,66.4006
2023-05-19T08:44:28.161Z,65.9656
2023-05-19T08:45:29.465Z,65.5893
2023-05-19T08:46:30.309Z,65.3600
2023-05-19T08:47:31.337Z,65.5113
2023-05-19T08:48:32.323Z,65.9505
2023-05-19T08:49:33.346Z,66.5808
2023-05-19T08:50:34.741Z,66.8965
2023-05-19T08:51:35.497Z,66.9475
2023-05-19T08:52:36.557Z,66.9964
2023-05-19T08:53:37.519Z,66.9866
2023-05-19T08:54:38.540Z,66.9063
2023-05-19T08:55:39.625Z,66.6720
2023-05-19T08:56:40.660Z,66.7962
2023-05-19T08:57:41.699Z,66.8223
2023-05-19T08:58:42.786Z,66.4819
2023-05-19T08:59:43.781Z,66.6552
2023-05-19T09:00:44.848Z,66.6755
2023-05-19T09:01:46.027Z,66.8503
2023-05-19T09:02:55.467Z,67.0238
2023-05-19T09:03:47.974Z,67.1466
2023-05-19T09:04:49.015Z,66.7127
2023-05-19T09:05:50.073Z,66.4845
2023-05-19T09:06:51.054Z,65.5674
2023-05-19T09:07:52.165Z,65.3507
2023-05-19T09:08:53.381Z,65.8422
2023-05-19T09:09:54.137Z,65.9729
2023-05-19T09:10:55.264Z,66.0015
2023-05-19T09:11:56.306Z,65.4113
2023-05-19T09:12:57.302Z,64.7907
2023-05-19T09:13:58.316Z,64.3699
2023-05-19T09:14:59.374Z,64.6567
2023-05-19T09:16:00.390Z,64.8659
2023-05-19T09:17:01.575Z,64.6870
2023-05-19T09:18:02.558Z,64.5758
2023-05-19T09:19:03.620Z,64.8597
2023-05-19T09:20:04.574Z,65.2568
2023-05-19T09:21:05.603Z,65.2895
2023-05-19T09:22:06.718Z,64.8887
2023-05-19T09:23:07.703Z,65.1064
2023-05-19T09:24:08.726Z,65.2402
2023-05-19T09:25:09.740Z,65.5669
2023-05-19T09:26:10.752Z,65.4198
2023-05-19T09:27:11.859Z,65.6728
2023-05-19T09:28:12.943Z,65.7844
2023-05-19T09:29:13.992Z,65.4728
2023-05-19T09:30:15.007Z,65.5758
2023-05-19T09:31:16.042Z,65.4371
2023-05-19T09:32:17.096Z,65.2211
2023-05-19T09:33:18.172Z,65.5176
2023-05-19T09:34:19.298Z,65.7163
2023-05-19T09:35:20.229Z,65.7725
2023-05-19T09:36:21.182Z,66.1006
2023-05-19T09:37:22.323Z,65.9835
2023-05-19T09:38:23.300Z,65.4073
2023-05-19T09:39:24.401Z,65.1874
2023-05-19T09:40:25.479Z,65.2835
2023-05-19T09:41:26.422Z,65.2655
2023-05-19T09:42:27.458Z,65.6615
2023-05-19T09:43:28.639Z,65.4766
2023-05-19T09:44:29.718Z,65.3969
2023-05-19T09:45:30.665Z,65.3480
2023-05-19T09:46:31.656Z,65.2200
2023-05-19T09:47:32.666Z,64.5130
2023-05-19T09:48:33.706Z,64.1976
2023-05-19T09:49:34.749Z,64.3633
2023-05-19T09:50:35.836Z,64.0317
2023-05-19T09:51:36.795Z,63.8776
2023-05-19T09:52:37.833Z,63.9876
2023-05-19T09:53:38.978Z,64.4973
2023-05-19T09:54:39.939Z,64.7537
2023-05-19T09:55:40.944Z,64.6947
2023-05-19T09:56:42.012Z,64.7595
2023-05-19T09:57:43.022Z,64.6841
2023-05-19T09:58:44.088Z,64.5757
2023-05-19T09:59:45.160Z,64.2896
2023-05-19T10:00:46.193Z,64.2458
2023-05-19T10:01:47.221Z,63.8108
2023-05-19T10:02:48.287Z,64.1199
2023-05-19T10:03:49.263Z,63.9094
2023-05-19T10:04:50.365Z,64.0891
2023-05-19T10:05:51.397Z,64.2433
2023-05-19T10:06:52.420Z,64.7965
2023-05-19T10:07:53.418Z,64.8145
2023-05-19T10:08:54.462Z,64.3862
2023-05-19T10:09:56.670Z,64.1215
2023-05-19T10:10:56.665Z,63.9762
2023-05-19T10:11:57.614Z,64.1402
2023-05-19T10:12:58.647Z,64.1671
2023-05-19T10:13:59.701Z,64.0790
2023-05-19T10:15:00.734Z,64.0478
2023-05-19T10:16:02.139Z,63.8614
2023-05-19T10:17:03.021Z,63.7657
2023-05-19T10:18:03.876Z,63.9709
2023-05-19T10:19:04.966Z,64.1553
2023-05-19T10:20:05.931Z,63.6364
2023-05-19T10:21:07.012Z,62.9495
2023-05-19T10:22:08.032Z,62.6987
2023-05-19T10:23:09.195Z,62.5689
2023-05-19T10:24:11.472Z,62.4513
2023-05-19T10:25:11.152Z,62.2022
2023-05-19T10:26:12.207Z,63.1867
2023-05-19T10:27:13.272Z,63.1641
2023-05-19T10:28:14.256Z,62.7079
2023-05-19T10:29:15.301Z,62.4814
2023-05-19T10:30:16.735Z,63.0526
2023-05-19T10:31:17.418Z,63.3073
2023-05-19T10:32:18.494Z,63.2287
2023-05-19T10:33:19.584Z,63.6076
2023-05-19T10:34:20.496Z,63.3763
2023-05-19T10:35:21.572Z,63.7204
2023-05-19T10:36:22.615Z,63.3119
2023-05-19T10:37:23.659Z,63.3127
2023-05-19T10:38:24.666Z,63.6140
2023-05-19T10:39:25.741Z,63.1972
2023-05-19T10:40:26.783Z,62.8200
2023-05-19T10:41:27.830Z,63.2952
2023-05-19T10:42:28.880Z,63.8525
2023-05-19T10:43:29.875Z,64.4914
2023-05-19T10:44:30.944Z,64.4353
2023-05-19T10:45:32.189Z,64.2696
2023-05-19T10:46:33.062Z,63.6581
2023-05-19T10:47:34.135Z,63.5497
2023-05-19T10:48:35.167Z,63.5340
2023-05-19T10:49:36.113Z,63.4294
2023-05-19T10:50:37.190Z,63.2552
2023-05-19T10:51:38.248Z,63.1123
2023-05-19T10:52:39.295Z,63.2116
2023-05-19T10:53:40.351Z,63.1671
2023-05-19T10:54:41.372Z,63.4378
2023-05-19T10:55:42.380Z,63.5387
2023-05-19T10:56:43.431Z,63.6133
2023-05-19T10:57:44.463Z,63.0074
2023-05-19T10:58:45.570Z,62.0926
2023-05-19T10:59:46.545Z,61.9653
2023-05-19T11:00:47.608Z,62.2116
2023-05-19T11:01:48.633Z,61.9976
2023-05-19T11:02:49.848Z,61.9023
2023-05-19T11:03:50.839Z,62.3038
2023-05-19T11:04:52.149Z,61.7405
2023-05-19T11:05:52.799Z,61.4196
2023-05-19T11:06:53.910Z,61.4994
2023-05-19T11:07:54.903Z,61.6241
2023-05-19T11:08:55.988Z,61.7108
2023-05-19T11:09:56.984Z,61.7309
2023-05-19T11:10:58.029Z,61.8704
2023-05-19T11:11:59.042Z,61.8527
2023-05-19T11:13:00.104Z,62.0502
2023-05-19T11:14:01.206Z,61.7670
2023-05-19T11:15:02.204Z,62.0148
2023-05-19T11:16:03.193Z,62.2076
2023-05-19T11:17:04.323Z,62.4807
2023-05-19T11:18:05.383Z,62.5474
2023-05-19T11:19:06.418Z,62.7052
2023-05-19T11:20:07.428Z,62.7165
2023-05-19T11:21:08.484Z,62.2916
2023-05-19T11:22:09.479Z,62.1413
2023-05-19T11:23:10.684Z,62.0417
2023-05-19T11:24:11.559Z,62.4098
2023-05-19T11:25:12.622Z,62.7588
2023-05-19T11:26:13.633Z,62.3446
2023-05-19T11:27:14.673Z,62.2343
2023-05-19T11:28:15.697Z,61.8132
2023-05-19T11:29:16.793Z,61.7169
2023-05-19T11:30:17.814Z,61.6038
2023-05-19T11:31:18.850Z,62.4566
2023-05-19T11:32:19.932Z,62.4586
2023-05-19T11:33:21.022Z,62.1814
2023-05-19T11:34:21.993Z,61.7500
2023-05-19T11:35:23.074Z,61.4726
2023-05-19T11:36:24.030Z,61.6342
2023-05-19T11:37:25.101Z,61.3978
2023-05-19T11:38:26.112Z,61.8134
2023-05-19T11:39:27.209Z,61.7632
2023-05-19T11:40:28.252Z,62.0487
2023-05-19T11:41:29.330Z,61.8179
2023-05-19T11:42:30.303Z,61.6632
2023-05-19T11:43:31.355Z,61.7388
2023-05-19T11:44:32.401Z,61.6119
2023-05-19T11:45:33.594Z,61.4863
2023-05-19T11:46:34.571Z,61.6155
2023-05-19T11:47:46.490Z,61.3612
2023-05-19T11:48:36.550Z,60.5357
2023-05-19T11:49:37.581Z,60.3408
2023-05-19T11:50:38.692Z,59.9097
2023-05-19T11:51:39.682Z,59.8459
2023-05-19T11:52:40.704Z,60.2956
2023-05-19T11:53:41.732Z,60.1654
2023-05-19T11:54:42.773Z,59.8708
2023-05-19T11:55:44.090Z,59.4998
2023-05-19T11:56:44.903Z,59.9516
2023-05-19T11:57:56.052Z,59.9239
2023-05-19T11:58:47.016Z,58.4483
2023-05-19T11:59:47.957Z,58.5349
2023-05-19T12:00:49.010Z,58.2565
2023-05-19T12:01:50.091Z,58.6931
2023-05-19T12:02:51.191Z,58.8589
2023-05-19T12:03:52.397Z,58.8303
2023-05-19T12:04:53.241Z,58.8827
2023-05-19T12:05:54.295Z,57.8494
2023-05-19T12:06:55.237Z,57.5493
2023-05-19T12:07:56.326Z,57.2149
2023-05-19T12:08:57.369Z,57.6101
2023-05-19T12:09:58.365Z,57.8360
2023-05-19T12:10:59.405Z,57.4055
2023-05-19T12:12:00.480Z,57.0817
2023-05-19T12:13:01.504Z,57.3721
2023-05-19T12:14:02.559Z,57.7731
2023-05-19T12:15:03.534Z,57.3780
2023-05-19T12:16:04.652Z,57.2482
2023-05-19T12:17:05.624Z,57.3710
2023-05-19T12:18:06.898Z,58.0746